Latest Weather Observations for Bunbury

IDW60801

Issued at 4:23 pm WST Thursday 18 August 2022 (issued every 10 minutes, with the page automatically refreshed every 10 minutes)

About weather observations | Map of weather stations | Latest weather observations for WA | Other Formats
Station Details ID: 009965 Name: BUNBURY Lat: -33.36 Lon: 115.64 Height: 5.2 m
Data from the previous 72 hours. | See also: Recent months at Bunbury
Date/Time
WST
Temp
°C
App
Temp
°C
Dew
Point
°C
Rel
Hum
%
Delta-T
°C
Wind Press
QNH
hPa
Press
MSL
hPa
Rain since
9am
mm
Dir  Spd
km/h
Gust
km/h
Spd
kts
Gust
kts
18/04:00pm 15.3 12.8 8.3 63 3.5 WSW 11 17 6 9 1027.0 1027.0 0.0
18/03:30pm 15.7 12.2 8.7 63 3.6 WSW 17 24 9 13 1026.9 1026.9 0.0
18/03:00pm 16.6 12.8 7.5 55 4.5 W 17 28 9 15 1026.8 1026.8 0.0
18/02:30pm 16.3 12.7 8.3 59 4.1 WSW 17 26 9 14 1026.8 1026.8 0.0
18/02:00pm 16.4 12.6 9.1 62 3.7 WSW 19 26 10 14 1026.7 1026.7 0.0
18/01:30pm 16.1 13.7 10.0 67 3.2 WSW 13 19 7 10 1026.8 1026.8 0.0
18/01:00pm 16.2 14.9 10.1 67 3.2 SW 7 15 4 8 1027.0 1027.0 0.0
18/12:30pm 16.4 15.1 9.8 65 3.5 W 7 17 4 9 1027.3 1027.3 0.0
18/12:00pm 16.8 16.2 12.3 75 2.5 N 7 13 4 7 1027.5 1027.5 0.0
18/11:30am 15.9 15.3 13.6 86 1.3 N 9 13 5 7 1027.6 1027.6 0.0
18/11:00am 13.4 12.7 12.0 91 0.7 NNE 7 13 4 7 1027.7 1027.7 0.0
18/10:30am 12.1 11.3 11.2 94 0.5 ENE 6 9 3 5 1027.9 1027.9 0.0
18/10:00am 11.6 10.7 10.8 95 0.4 NE 6 7 3 4 1027.8 1027.8 0.0
18/09:30am 10.6 9.5 10.0 96 0.3 NNE 6 9 3 5 1027.6 1027.6 0.0
18/09:00am 9.7 8.4 9.2 97 0.2 NE 6 9 3 5 1027.5 1027.5 3.6
18/08:30am 7.7 5.9 7.3 97 0.2 NE 6 7 3 4 1027.3 1027.3 3.6
18/08:00am 6.5 5.6 6.1 97 0.2 CALM 0 0 0 0 1026.9 1026.9 3.6
18/07:30am 4.4 3.1 4.0 97 0.2 CALM 0 0 0 0 1026.3 1026.3 3.6
18/07:00am 3.4 1.5 2.8 96 0.2 E 2 2 1 1 1025.8 1025.8 3.6
18/06:30am 3.6 1.7 3.0 96 0.2 E 2 4 1 2 1025.4 1025.4 3.6
18/06:00am 3.7 1.8 3.1 96 0.2 ESE 2 4 1 2 1025.2 1025.2 3.6
18/05:30am 4.2 2.0 3.6 96 0.2 E 4 6 2 3 1024.8 1024.8 3.6
18/05:00am 4.4 2.3 3.8 96 0.2 E 4 6 2 3 1024.7 1024.7 3.6
18/04:30am 4.0 2.6 3.4 96 0.2 CALM 0 0 0 0 1024.4 1024.4 3.6
18/04:00am 3.9 2.5 3.3 96 0.2 CALM 0 0 0 0 1024.2 1024.2 3.6
18/03:30am 3.9 2.4 3.2 95 0.3 CALM 0 2 0 1 1024.0 1024.0 3.6
18/03:00am 4.5 2.8 3.9 96 0.2 E 2 4 1 2 1024.0 1024.0 3.6
18/02:30am 3.7 1.8 3.0 95 0.3 SE 2 4 1 2 1024.0 1024.0 3.6
18/02:00am 4.8 2.7 4.1 95 0.3 E 4 6 2 3 1023.6 1023.6 3.6
18/01:30am 3.9 2.4 3.2 95 0.3 CALM 0 0 0 0 1023.3 1023.3 3.6
18/01:00am 3.0 1.3 2.1 94 0.4 CALM 0 0 0 0 1022.9 1022.9 3.6
18/12:30am 3.7 2.2 2.8 94 0.4 CALM 0 0 0 0 1022.8 1022.8 3.6
18/12:00am 4.7 3.0 3.8 94 0.4 ENE 2 2 1 1 1022.5 1022.5 3.6
 
Date/Time
WST
Temp
°C
App
Temp
°C
Dew
Point
°C
Rel
Hum
%
Delta-T
°C
Wind Press
QNH
hPa
Press
MSL
hPa
Rain since
9am
mm
Dir  Spd
km/h
Gust
km/h
Spd
kts
Gust
kts
17/11:30pm 4.7 3.3 3.8 94 0.4 CALM 0 0 0 0 1022.3 1022.3 3.2
17/11:00pm 5.7 4.5 4.7 93 0.4 CALM 0 0 0 0 1022.0 1022.0 3.2
17/10:30pm 5.7 4.5 4.7 93 0.4 CALM 0 4 0 2 1021.3 1021.3 3.2
17/10:00pm 5.5 3.9 4.3 92 0.5 SE 2 4 1 2 1021.3 1021.3 3.2
17/09:30pm 5.6 4.4 4.4 92 0.5 CALM 0 0 0 0 1021.0 1021.0 3.2
17/09:00pm 6.5 5.0 5.1 91 0.6 S 2 4 1 2 1020.3 1020.3 3.2
17/08:30pm 7.0 6.0 5.5 90 0.7 CALM 0 0 0 0 1019.8 1019.8 3.2
17/08:00pm 7.6 6.7 6.1 90 0.7 CALM 0 6 0 3 1019.2 1019.2 3.2
17/07:30pm 8.2 7.4 6.5 89 0.8 CALM 0 0 0 0 1018.3 1018.3 3.2
17/07:00pm 8.4 7.6 6.5 88 0.9 CALM 0 0 0 0 1017.6 1017.5 3.2
17/06:30pm 9.3 7.9 7.3 87 0.9 SSW 4 6 2 3 1016.7 1016.6 3.2
17/06:00pm 9.6 8.2 7.2 85 1.1 SSW 4 4 2 2 1015.8 1015.7 3.2
17/05:30pm 9.8 8.0 7.1 83 1.3 S 6 7 3 4 1015.0 1014.9 3.2
17/05:00pm 9.7 7.7 6.2 79 1.6 SSE 6 9 3 5 1014.3 1014.2 3.2
17/04:30pm 9.9 6.1 5.7 75 1.9 S 15 26 8 14 1013.7 1013.7 3.0
17/04:00pm 12.1 11.4 6.8 70 2.5 CALM 0 0 0 0 1012.8 1012.8 2.6
17/03:30pm 12.0 9.8 6.1 67 2.8 S 7 15 4 8 1012.2 1012.2 2.4
17/03:00pm 12.4 9.0 6.0 65 3.0 S 13 17 7 9 1011.8 1011.8 2.4
17/02:30pm 13.2 12.1 8.3 72 2.4 E 4 7 2 4 1011.5 1011.5 2.4
17/02:00pm 13.3 11.5 8.0 70 2.6 SE 7 11 4 6 1010.8 1010.8 2.4
17/01:30pm 13.6 12.7 7.6 67 2.9 SSW 2 9 1 5 1010.7 1010.7 2.4
17/01:00pm 13.4 11.9 8.3 71 2.5 SE 6 11 3 6 1010.8 1010.8 2.4
17/12:30pm 12.9 9.8 7.4 69 2.7 S 13 19 7 10 1011.0 1011.0 2.4
17/12:00pm 14.0 9.7 6.8 62 3.5 WSW 19 32 10 17 1011.0 1011.0 2.4
17/11:30am 14.6 10.4 7.4 62 3.5 W 19 28 10 15 1010.8 1010.8 2.4
17/11:00am 14.4 10.6 9.2 71 2.7 W 19 26 10 14 1010.6 1010.6 2.4
17/10:30am 11.7 11.1 7.2 74 2.2 CALM 0 0 0 0 1011.0 1011.0 2.4
17/10:00am 10.7 6.2 6.3 74 2.1 W 19 33 10 18 1010.8 1010.8 2.4
17/09:30am 13.4 11.1 7.6 68 2.8 SE 9 15 5 8 1010.2 1010.2 0.0
17/09:00am 13.5 10.6 6.6 63 3.3 WSW 11 19 6 10 1009.7 1009.7 11.4
17/08:30am 11.8 9.4 7.1 73 2.3 SW 9 15 5 8 1009.4 1009.4 11.4
17/08:00am 10.6 3.9 5.6 71 2.3 SW 30 50 16 27 1008.8 1008.8 11.4
17/07:57am 10.8 4.5 5.6 70 2.4 SW 28 50 15 27 1008.7 1008.7 11.4
17/07:52am 11.9 7.4 6.0 67 2.8 SW 19 50 10 27 1008.7 1008.7 11.2
17/07:30am 12.0 9.1 6.7 70 2.5 WSW 11 22 6 12 1008.2 1008.2 11.2
17/07:00am 12.7 8.2 7.0 68 2.8 SW 20 32 11 17 1007.4 1007.4 11.2
17/06:30am 13.2 8.6 6.3 63 3.3 WSW 20 35 11 19 1006.8 1006.8 11.2
17/06:00am 13.0 7.6 6.4 64 3.2 WSW 24 41 13 22 1006.6 1006.6 11.2
17/05:30am 12.4 9.1 9.6 83 1.4 WSW 17 28 9 15 1006.0 1006.0 11.2
17/05:00am 10.9 7.8 8.8 87 1.0 SW 15 22 8 12 1005.8 1005.8 11.2
17/04:30am 11.4 8.7 9.1 86 1.1 SSW 13 24 7 13 1005.0 1005.0 11.0
17/04:00am 11.3 6.5 9.0 86 1.1 SW 24 41 13 22 1004.8 1004.8 11.0
17/03:47am 12.2 7.7 9.9 86 1.2 WSW 24 48 13 26 1004.8 1004.8 10.2
17/03:30am 11.4 9.7 9.7 89 0.9 W 9 20 5 11 1004.5 1004.5 10.2
17/03:00am 10.9 8.5 8.7 86 1.1 WSW 11 19 6 10 1004.7 1004.7 7.6
17/02:36am 11.6 6.9 7.7 77 1.9 SW 22 59 12 32 1005.1 1005.1 7.0
17/02:30am 12.1 8.4 8.0 76 2.0 SW 17 28 9 15 1004.8 1004.8 7.0
17/02:00am 13.6 10.4 10.0 79 1.9 W 17 30 9 16 1004.4 1004.4 7.0
17/01:30am 13.8 9.6 9.6 76 2.2 W 22 35 12 19 1004.6 1004.6 7.0
17/01:00am 12.7 7.9 8.8 77 2.0 WNW 24 48 13 26 1004.6 1004.6 7.0
17/12:30am 13.3 8.9 9.0 75 2.2 WNW 22 32 12 17 1004.7 1004.7 6.8
17/12:00am 14.1 8.9 8.7 70 2.7 W 26 41 14 22 1004.8 1004.8 6.6
 
Date/Time
WST
Temp
°C
App
Temp
°C
Dew
Point
°C
Rel
Hum
%
Delta-T
°C
Wind Press
QNH
hPa
Press
MSL
hPa
Rain since
9am
mm
Dir  Spd
km/h
Gust
km/h
Spd
kts
Gust
kts
16/11:30pm 13.4 9.7 10.2 81 1.7 W 20 33 11 18 1005.3 1005.3 6.6
16/11:00pm 12.4 7.5 9.8 84 1.3 W 26 46 14 25 1005.5 1005.5 6.6
16/10:40pm 13.4 8.1 10.0 80 1.8 W 28 52 15 28 1005.8 1005.8 6.2
16/10:30pm 13.0 9.4 9.8 81 1.6 W 19 35 10 19 1005.5 1005.5 5.8
16/10:00pm 14.6 10.2 10.4 76 2.2 WNW 24 39 13 21 1005.6 1005.6 5.2
16/09:30pm 13.3 9.6 9.5 78 1.9 NW 19 26 10 14 1005.6 1005.6 4.8
16/09:14pm 14.0 8.4 8.8 71 2.6 WNW 28 46 15 25 1005.9 1005.9 4.8
16/09:00pm 14.5 10.2 9.3 71 2.7 WNW 22 32 12 17 1005.8 1005.8 4.2
16/08:30pm 13.8 11.4 10.0 78 2.0 W 13 24 7 13 1005.9 1005.9 4.2
16/08:00pm 14.0 9.2 10.2 78 2.0 W 26 43 14 23 1006.0 1006.0 4.2
16/07:30pm 13.2 9.3 9.6 79 1.8 W 20 33 11 18 1005.9 1005.9 4.2
16/07:00pm 13.1 10.6 9.7 80 1.7 W 13 22 7 12 1005.9 1005.9 3.8
16/06:30pm 13.1 9.9 8.6 74 2.2 WNW 15 24 8 13 1005.7 1005.7 3.8
16/06:00pm 13.4 8.0 7.8 69 2.8 W 26 48 14 26 1005.7 1005.7 3.4
16/05:30pm 14.9 10.2 9.3 69 2.9 WNW 24 37 13 20 1005.2 1005.2 3.4
16/05:00pm 14.0 10.3 9.6 75 2.3 WNW 19 30 10 16 1005.2 1005.2 3.4
16/04:32pm 13.7 6.8 9.0 73 2.4 WNW 35 61 19 33 1005.4 1005.4 3.0
16/04:30pm 14.1 7.8 8.9 71 2.6 WNW 32 61 17 33 1005.3 1005.3 2.8
16/04:28pm 14.8 9.7 9.2 69 2.9 WNW 26 61 14 33 1005.2 1005.2 2.8
16/04:00pm 15.5 11.3 9.6 68 3.1 WNW 22 30 12 16 1004.8 1004.8 2.8
16/03:30pm 13.7 8.3 9.6 76 2.1 WNW 28 46 15 25 1005.0 1005.0 2.8
16/03:25pm 13.8 8.4 9.5 75 2.2 NW 28 54 15 29 1005.2 1005.2 2.8
16/03:00pm 16.3 12.5 9.9 66 3.4 WNW 20 28 11 15 1004.5 1004.5 0.0
16/02:30pm 16.5 12.5 10.4 67 3.2 WNW 22 35 12 19 1004.3 1004.3 0.0
16/02:00pm 16.5 11.2 9.7 64 3.6 W 28 43 15 23 1004.1 1004.1 0.0
16/01:30pm 17.4 11.9 9.1 58 4.3 WNW 28 41 15 22 1004.0 1004.0 0.0
16/01:00pm 17.4 12.4 9.6 60 4.1 WNW 26 35 14 19 1004.0 1004.0 0.0
16/12:30pm 17.3 11.8 9.2 59 4.2 W 28 44 15 24 1004.1 1004.1 0.0
16/12:00pm 16.6 13.0 10.5 67 3.3 W 20 33 11 18 1004.2 1004.2 0.0
16/11:30am 16.0 11.6 10.3 69 3.0 W 24 35 13 19 1004.3 1004.3 0.0
16/11:00am 16.3 12.2 10.2 67 3.2 W 22 33 12 18 1004.3 1004.3 0.0
16/10:30am 16.0 12.0 10.3 69 3.0 W 22 35 12 19 1004.2 1004.2 0.0
16/10:00am 16.0 12.7 11.6 75 2.4 W 20 37 11 20 1004.0 1004.0 0.0
16/09:30am 15.3 12.1 11.9 80 1.8 W 20 35 11 19 1004.0 1004.0 0.0
16/09:19am 15.3 10.4 11.3 77 2.1 W 28 46 15 25 1004.0 1004.0 0.0
16/09:00am 15.2 11.8 11.2 77 2.1 W 20 35 11 19 1003.6 1003.6 7.0
16/08:30am 15.8 12.8 11.8 77 2.2 W 19 32 10 17 1003.3 1003.3 7.0
16/08:00am 15.9 13.0 13.0 83 1.6 W 20 28 11 15 1002.9 1002.9 7.0
16/07:30am 15.3 13.9 13.3 88 1.1 W 13 20 7 11 1002.3 1002.3 7.0
16/07:00am 14.9 12.2 12.8 87 1.2 W 19 33 10 18 1002.1 1002.1 6.8
16/06:30am 15.9 13.8 13.6 86 1.3 W 17 28 9 15 1002.1 1002.1 5.8
16/06:00am 16.0 13.9 13.7 86 1.3 W 17 28 9 15 1001.8 1001.8 5.6
16/05:30am 16.4 14.8 13.9 85 1.4 W 15 28 8 15 1001.5 1001.5 5.6
16/05:00am 16.3 14.8 14.1 87 1.3 W 15 22 8 12 1001.5 1001.5 5.6
16/04:30am 16.5 14.8 14.7 89 1.0 W 17 24 9 13 1001.3 1001.3 5.6
16/04:00am 16.2 14.0 14.9 92 0.8 W 20 35 11 19 1001.7 1001.7 5.6
16/03:30am 16.5 14.5 15.4 93 0.6 W 20 28 11 15 1001.4 1001.4 5.6
16/03:00am 17.1 16.3 16.1 94 0.6 WNW 15 26 8 14 1001.2 1001.2 5.6
16/02:30am 16.9 15.7 16.1 95 0.5 WNW 17 24 9 13 1000.7 1000.7 5.6
16/02:00am 17.1 16.0 16.3 95 0.5 WNW 17 26 9 14 1000.5 1000.5 5.6
16/01:30am 17.2 16.1 16.4 95 0.5 NW 17 28 9 15 1000.1 1000.1 5.4
16/01:00am 17.3 14.9 16.3 94 0.6 N 24 37 13 20 999.7 999.7 3.0
16/12:30am 17.4 15.0 16.3 93 0.7 N 24 37 13 20 999.9 999.9 2.8
16/12:00am 17.3 14.8 16.2 93 0.7 N 24 37 13 20 1000.5 1000.5 2.6
 
Date/Time
WST
Temp
°C
App
Temp
°C
Dew
Point
°C
Rel
Hum
%
Delta-T
°C
Wind Press
QNH
hPa
Press
MSL
hPa
Rain since
9am
mm
Dir  Spd
km/h
Gust
km/h
Spd
kts
Gust
kts
15/11:30pm 16.7 15.3 15.6 93 0.6 NNE 17 32 9 17 1001.1 1001.1 2.6
15/11:00pm 16.2 14.6 15.1 93 0.6 NNE 17 26 9 14 1001.5 1001.5 2.6
15/10:30pm 15.8 13.7 14.7 93 0.6 NNE 19 28 10 15 1002.4 1002.4 2.6
15/10:00pm 15.5 13.7 14.4 93 0.6 NNE 17 24 9 13 1002.7 1002.7 2.6
15/09:30pm 15.4 13.5 14.1 92 0.7 NNE 17 24 9 13 1003.2 1003.2 2.6
15/09:00pm 15.3 14.4 13.8 91 0.8 NNE 11 20 6 11 1004.0 1004.0 2.6
15/08:30pm 15.3 13.6 13.7 90 0.9 NE 15 20 8 11 1004.6 1004.6 2.6
15/08:00pm 15.5 13.8 13.5 88 1.1 N 15 24 8 13 1005.5 1005.5 2.6
15/07:30pm 15.8 14.4 13.5 86 1.3 NNE 13 19 7 10 1005.6 1005.6 1.2
15/07:00pm 16.1 16.0 13.4 84 1.5 ENE 6 7 3 4 1005.4 1005.4 0.6
15/06:30pm 16.4 16.3 13.3 82 1.7 NE 6 9 3 5 1005.9 1005.9 0.0
15/06:00pm 16.9 16.2 13.2 79 2.1 NE 9 15 5 8 1005.8 1005.8 0.0
15/05:30pm 17.2 16.2 13.3 78 2.2 NE 11 17 6 9 1006.1 1006.1 0.0
15/05:00pm 17.3 16.2 13.2 77 2.3 NNE 11 17 6 9 1006.3 1006.3 0.0
15/04:30pm 17.4 15.7 13.5 78 2.2 N 15 22 8 12 1007.0 1007.0 0.0

Other formats

Comma delimited format used in spreadsheet applications
http://www.bom.gov.au/fwo/IDW60801/IDW60801.94604.axf

JavaScript Object Notation format (JSON) in row-major order
http://www.bom.gov.au/fwo/IDW60801/IDW60801.94604.json

Data quality

Most of these data are generated automatically and are frequently updated. Quality checks on data are not normally performed. It is possible for incorrect values to appear. Refer to information at About Latest Weather Observations and please check the disclaimer before using these data.